HVN123 VVTS-VVCR
Flight info
| Callsign | HVN123 |
|---|---|
| Flight time | 0h 40m |
| Altitude | 25000 |
| Route | BIXE5B BANK1A |
| Aircraft | A20N/M-SDE2E3FGHIRWXY/LB1 |
Departure
| Time | 2026-04-23 08:38 |
|---|---|
| Airport | Tan Son Nhat International Airport (VVTS) |
Arrival
| Time | 2026-04-23 09:18 |
|---|---|
| Airport | Cam Ranh International Airport / Cam Ranh Air Base (VVCR) |
| Time | Latitude | Longitude | Altitude | Speed | Heading |
|---|---|---|---|---|---|
| 2026-04-23 08:20 | 10.81522 | 106.66144 | 36 ft | 0 kts | 95° |
| 2026-04-23 08:26 | 10.81523 | 106.66133 | 36 ft | 2 kts | 94° |
| 2026-04-23 08:27 | 10.81524 | 106.66116 | 36 ft | 2 kts | 91° |
| 2026-04-23 08:27 | 10.81524 | 106.66100 | 36 ft | 2 kts | 88° |
| 2026-04-23 08:27 | 10.81523 | 106.66083 | 36 ft | 2 kts | 83° |
| 2026-04-23 08:27 | 10.81520 | 106.66066 | 36 ft | 2 kts | 75° |
| 2026-04-23 08:28 | 10.81515 | 106.66050 | 33 ft | 2 kts | 58° |
| 2026-04-23 08:28 | 10.81504 | 106.66038 | 35 ft | 2 kts | 27° |
| 2026-04-23 08:28 | 10.81491 | 106.66033 | 34 ft | 1 kts | 5° |
| 2026-04-23 08:28 | 10.81487 | 106.66033 | 36 ft | 0 kts | 3° |
| 2026-04-23 08:29 | 10.81488 | 106.66033 | 36 ft | 1 kts | 3° |
| 2026-04-23 08:30 | 10.81508 | 106.66034 | 36 ft | 5 kts | 3° |
| 2026-04-23 08:30 | 10.81557 | 106.66037 | 36 ft | 9 kts | 4° |
| 2026-04-23 08:30 | 10.81634 | 106.66043 | 36 ft | 13 kts | 5° |
| 2026-04-23 08:30 | 10.81734 | 106.66058 | 36 ft | 16 kts | 6° |
| 2026-04-23 08:31 | 10.81855 | 106.66081 | 36 ft | 19 kts | 30° |
| 2026-04-23 08:31 | 10.81910 | 106.66199 | 35 ft | 20 kts | 69° |
| 2026-04-23 08:31 | 10.81954 | 106.66313 | 35 ft | 10 kts | 69° |
| 2026-04-23 08:31 | 10.81971 | 106.66359 | 37 ft | 9 kts | 69° |
| 2026-04-23 08:32 | 10.81998 | 106.66430 | 35 ft | 13 kts | 69° |
| 2026-04-23 08:32 | 10.82033 | 106.66526 | 36 ft | 16 kts | 71° |
| 2026-04-23 08:32 | 10.82076 | 106.66642 | 36 ft | 19 kts | 69° |
| 2026-04-23 08:32 | 10.82126 | 106.66776 | 35 ft | 22 kts | 70° |
| 2026-04-23 08:33 | 10.82165 | 106.66884 | 36 ft | 1 kts | 70° |
| 2026-04-23 08:33 | 10.82171 | 106.66900 | 34 ft | 4 kts | 68° |
| 2026-04-23 08:33 | 10.82188 | 106.66941 | 35 ft | 8 kts | 67° |
| 2026-04-23 08:33 | 10.82216 | 106.67000 | 37 ft | 10 kts | 45° |
| 2026-04-23 08:34 | 10.82280 | 106.67003 | 37 ft | 0 kts | 342° |
| 2026-04-23 08:35 | 10.82294 | 106.66998 | 38 ft | 4 kts | 337° |
| 2026-04-23 08:35 | 10.82322 | 106.66974 | 38 ft | 7 kts | 314° |
| 2026-04-23 08:35 | 10.82366 | 106.66938 | 38 ft | 7 kts | 300° |
| 2026-04-23 08:35 | 10.82354 | 106.66900 | 38 ft | 5 kts | 247° |
| 2026-04-23 08:36 | 10.82336 | 106.66854 | 37 ft | 31 kts | 249° |
| 2026-04-23 08:37 | 10.82167 | 106.66417 | 36 ft | 99 kts | 249° |
| 2026-04-23 08:37 | 10.81857 | 106.65593 | 35 ft | 148 kts | 249° |
| 2026-04-23 08:37 | 10.81493 | 106.64614 | 181 ft | 133 kts | 247° |
| 2026-04-23 08:37 | 10.81158 | 106.63716 | 326 ft | 147 kts | 243° |
| 2026-04-23 08:38 | 10.80746 | 106.62716 | 1051 ft | 155 kts | 245° |
| 2026-04-23 08:38 | 10.80353 | 106.61657 | 1818 ft | 159 kts | 245° |
| 2026-04-23 08:38 | 10.79945 | 106.60558 | 2439 ft | 176 kts | 245° |
| 2026-04-23 08:38 | 10.79480 | 106.59328 | 3001 ft | 197 kts | 246° |
| 2026-04-23 08:39 | 10.78957 | 106.57941 | 3494 ft | 219 kts | 246° |
| 2026-04-23 08:39 | 10.78349 | 106.56489 | 4285 ft | 226 kts | 237° |
| 2026-04-23 08:39 | 10.77233 | 106.55364 | 4767 ft | 230 kts | 208° |
| 2026-04-23 08:39 | 10.75686 | 106.54990 | 5069 ft | 234 kts | 175° |
| 2026-04-23 08:40 | 10.74165 | 106.55560 | 5790 ft | 236 kts | 143° |
| 2026-04-23 08:40 | 10.72852 | 106.56552 | 6758 ft | 235 kts | 143° |
| 2026-04-23 08:40 | 10.71545 | 106.57531 | 7609 ft | 238 kts | 143° |
| 2026-04-23 08:40 | 10.70179 | 106.58536 | 8385 ft | 242 kts | 144° |
| 2026-04-23 08:41 | 10.68813 | 106.59528 | 8781 ft | 245 kts | 144° |
| 2026-04-23 08:41 | 10.67420 | 106.60534 | 8941 ft | 246 kts | 144° |
| 2026-04-23 08:41 | 10.66024 | 106.61541 | 8986 ft | 246 kts | 144° |
| 2026-04-23 08:41 | 10.64783 | 106.62714 | 8990 ft | 244 kts | 122° |
| 2026-04-23 08:42 | 10.64256 | 106.64338 | 8983 ft | 246 kts | 91° |
| 2026-04-23 08:42 | 10.64588 | 106.66035 | 8994 ft | 248 kts | 69° |
| 2026-04-23 08:42 | 10.65260 | 106.67779 | 8989 ft | 283 kts | 68° |
| 2026-04-23 08:42 | 10.66011 | 106.69691 | 8976 ft | 294 kts | 69° |
| 2026-04-23 08:43 | 10.66760 | 106.71619 | 8978 ft | 293 kts | 69° |
| 2026-04-23 08:43 | 10.67500 | 106.73552 | 9020 ft | 295 kts | 69° |
| 2026-04-23 08:43 | 10.68239 | 106.75509 | 9432 ft | 298 kts | 69° |
| 2026-04-23 08:43 | 10.68982 | 106.77484 | 10216 ft | 301 kts | 69° |
| 2026-04-23 08:44 | 10.69749 | 106.79525 | 10678 ft | 319 kts | 69° |
| 2026-04-23 08:44 | 10.70574 | 106.81713 | 10894 ft | 342 kts | 69° |
| 2026-04-23 08:44 | 10.71573 | 106.83959 | 11034 ft | 351 kts | 61° |
| 2026-04-23 08:44 | 10.72915 | 106.86045 | 11418 ft | 355 kts | 52° |
| 2026-04-23 08:45 | 10.74449 | 106.87965 | 12275 ft | 355 kts | 51° |
| 2026-04-23 08:45 | 10.75999 | 106.89934 | 13031 ft | 358 kts | 51° |
| 2026-04-23 08:45 | 10.77556 | 106.91928 | 13748 ft | 362 kts | 51° |
| 2026-04-23 08:45 | 10.79132 | 106.93948 | 14384 ft | 366 kts | 51° |
| 2026-04-23 08:46 | 10.80733 | 106.95994 | 15013 ft | 370 kts | 51° |
| 2026-04-23 08:46 | 10.82348 | 106.98054 | 15634 ft | 374 kts | 51° |
| 2026-04-23 08:46 | 10.83979 | 107.00133 | 16230 ft | 378 kts | 51° |
| 2026-04-23 08:46 | 10.85630 | 107.02238 | 16805 ft | 383 kts | 51° |
| 2026-04-23 08:47 | 10.87298 | 107.04364 | 17387 ft | 386 kts | 51° |
| 2026-04-23 08:47 | 10.89111 | 107.06401 | 17959 ft | 390 kts | 44° |
| 2026-04-23 08:47 | 10.91199 | 107.08185 | 18475 ft | 394 kts | 36° |
| 2026-04-23 08:47 | 10.93514 | 107.09695 | 18955 ft | 397 kts | 31° |
| 2026-04-23 08:48 | 10.95894 | 107.11145 | 19441 ft | 400 kts | 31° |
| 2026-04-23 08:48 | 10.98296 | 107.12619 | 19931 ft | 404 kts | 31° |
| 2026-04-23 08:48 | 11.00675 | 107.14083 | 20418 ft | 407 kts | 31° |
| 2026-04-23 08:48 | 11.03107 | 107.15581 | 20894 ft | 410 kts | 31° |
| 2026-04-23 08:49 | 11.05562 | 107.17092 | 21366 ft | 414 kts | 31° |
| 2026-04-23 08:49 | 11.08043 | 107.18620 | 21838 ft | 417 kts | 31° |
| 2026-04-23 08:49 | 11.10536 | 107.20156 | 22307 ft | 420 kts | 31° |
| 2026-04-23 08:49 | 11.13044 | 107.21719 | 22734 ft | 424 kts | 34° |
| 2026-04-23 08:50 | 11.15332 | 107.23628 | 23187 ft | 427 kts | 46° |
| 2026-04-23 08:50 | 11.17213 | 107.25976 | 23575 ft | 430 kts | 57° |
| 2026-04-23 08:50 | 11.18644 | 107.28654 | 23973 ft | 431 kts | 64° |
| 2026-04-23 08:50 | 11.19981 | 107.31399 | 24389 ft | 433 kts | 64° |
| 2026-04-23 08:51 | 11.21332 | 107.34153 | 24663 ft | 435 kts | 64° |
| 2026-04-23 08:51 | 11.22668 | 107.36872 | 24772 ft | 436 kts | 64° |
| 2026-04-23 08:51 | 11.24025 | 107.39631 | 24789 ft | 435 kts | 64° |
| 2026-04-23 08:51 | 11.25383 | 107.42391 | 24805 ft | 435 kts | 64° |
| 2026-04-23 08:52 | 11.26738 | 107.45148 | 24794 ft | 436 kts | 64° |
| 2026-04-23 08:52 | 11.28094 | 107.47910 | 24800 ft | 436 kts | 64° |
| 2026-04-23 08:52 | 11.29449 | 107.50670 | 24796 ft | 435 kts | 64° |
| 2026-04-23 08:52 | 11.30805 | 107.53433 | 24810 ft | 435 kts | 64° |
| 2026-04-23 08:53 | 11.32159 | 107.56192 | 24805 ft | 436 kts | 64° |
| 2026-04-23 08:53 | 11.33515 | 107.58956 | 24808 ft | 436 kts | 64° |
| 2026-04-23 08:53 | 11.34871 | 107.61719 | 24808 ft | 435 kts | 64° |
| 2026-04-23 08:53 | 11.36223 | 107.64479 | 24811 ft | 436 kts | 64° |
| 2026-04-23 08:54 | 11.37579 | 107.67244 | 24815 ft | 436 kts | 64° |
| 2026-04-23 08:54 | 11.38936 | 107.70013 | 24820 ft | 436 kts | 64° |
| 2026-04-23 08:54 | 11.40289 | 107.72775 | 24821 ft | 435 kts | 64° |
| 2026-04-23 08:54 | 11.41642 | 107.75538 | 24828 ft | 435 kts | 64° |
| 2026-04-23 08:55 | 11.42995 | 107.78302 | 24823 ft | 436 kts | 64° |
| 2026-04-23 08:55 | 11.44345 | 107.81061 | 24826 ft | 436 kts | 64° |
| 2026-04-23 08:55 | 11.45244 | 107.82899 | 24822 ft | 436 kts | 64° |
| 2026-04-23 08:55 | 11.46600 | 107.85670 | 24831 ft | 436 kts | 64° |
| 2026-04-23 08:56 | 11.48394 | 107.89338 | 24835 ft | 436 kts | 64° |
| 2026-04-23 08:56 | 11.49748 | 107.92106 | 24831 ft | 436 kts | 64° |
| 2026-04-23 08:56 | 11.51100 | 107.94872 | 24831 ft | 436 kts | 64° |
| 2026-04-23 08:56 | 11.52014 | 107.96743 | 24838 ft | 436 kts | 64° |
| 2026-04-23 08:57 | 11.53369 | 107.99518 | 24844 ft | 436 kts | 64° |
| 2026-04-23 08:57 | 11.54723 | 108.02289 | 24836 ft | 437 kts | 64° |
| 2026-04-23 08:57 | 11.56075 | 108.05060 | 24841 ft | 436 kts | 64° |
| 2026-04-23 08:57 | 11.57409 | 108.07794 | 24839 ft | 436 kts | 64° |
| 2026-04-23 08:58 | 11.58764 | 108.10569 | 24843 ft | 436 kts | 64° |
| 2026-04-23 08:58 | 11.60110 | 108.13333 | 24841 ft | 436 kts | 64° |
| 2026-04-23 08:58 | 11.61312 | 108.16178 | 24846 ft | 436 kts | 68° |
| 2026-04-23 08:58 | 11.62466 | 108.19039 | 24798 ft | 436 kts | 68° |
| 2026-04-23 08:59 | 11.63625 | 108.21899 | 24588 ft | 435 kts | 68° |
| 2026-04-23 08:59 | 11.64779 | 108.24743 | 24371 ft | 433 kts | 68° |
| 2026-04-23 08:59 | 11.65930 | 108.27579 | 24148 ft | 432 kts | 68° |
| 2026-04-23 08:59 | 11.67076 | 108.30407 | 23933 ft | 431 kts | 68° |
| 2026-04-23 09:00 | 11.68221 | 108.33234 | 23721 ft | 430 kts | 68° |
| 2026-04-23 09:00 | 11.69361 | 108.36049 | 23510 ft | 429 kts | 68° |
| 2026-04-23 09:00 | 11.70502 | 108.38869 | 22943 ft | 430 kts | 68° |
| 2026-04-23 09:00 | 11.71640 | 108.41680 | 22389 ft | 428 kts | 68° |
| 2026-04-23 09:01 | 11.72755 | 108.44435 | 21821 ft | 423 kts | 68° |
| 2026-04-23 09:01 | 11.73873 | 108.47201 | 21246 ft | 419 kts | 68° |
| 2026-04-23 09:01 | 11.74974 | 108.49924 | 20683 ft | 412 kts | 68° |
| 2026-04-23 09:01 | 11.76057 | 108.52604 | 20113 ft | 405 kts | 68° |
| 2026-04-23 09:02 | 11.77124 | 108.55247 | 19537 ft | 400 kts | 68° |
| 2026-04-23 09:02 | 11.78183 | 108.57869 | 18982 ft | 395 kts | 69° |
| 2026-04-23 09:02 | 11.79223 | 108.60445 | 18432 ft | 391 kts | 69° |
| 2026-04-23 09:02 | 11.80251 | 108.62992 | 17846 ft | 386 kts | 69° |
| 2026-04-23 09:03 | 11.81263 | 108.65504 | 17348 ft | 378 kts | 69° |
| 2026-04-23 09:03 | 11.82242 | 108.67934 | 16833 ft | 372 kts | 68° |
| 2026-04-23 09:03 | 11.83220 | 108.70363 | 16319 ft | 367 kts | 68° |
| 2026-04-23 09:03 | 11.84184 | 108.72755 | 15806 ft | 362 kts | 68° |
| 2026-04-23 09:04 | 11.85134 | 108.75113 | 15306 ft | 357 kts | 68° |
| 2026-04-23 09:04 | 11.86075 | 108.77452 | 14774 ft | 353 kts | 68° |
| 2026-04-23 09:04 | 11.87005 | 108.79762 | 14307 ft | 348 kts | 67° |
| 2026-04-23 09:04 | 11.87922 | 108.82044 | 13809 ft | 345 kts | 67° |
| 2026-04-23 09:05 | 11.88830 | 108.84301 | 13275 ft | 342 kts | 67° |
| 2026-04-23 09:05 | 11.89636 | 108.86556 | 12822 ft | 336 kts | 73° |
| 2026-04-23 09:05 | 11.90130 | 108.88856 | 12576 ft | 325 kts | 80° |
| 2026-04-23 09:05 | 11.90497 | 108.91085 | 12339 ft | 314 kts | 79° |
| 2026-04-23 09:06 | 11.90870 | 108.93245 | 11883 ft | 311 kts | 79° |
| 2026-04-23 09:06 | 11.91249 | 108.95408 | 11478 ft | 307 kts | 79° |
| 2026-04-23 09:06 | 11.91618 | 108.97532 | 11159 ft | 301 kts | 79° |
| 2026-04-23 09:06 | 11.91986 | 108.99648 | 10839 ft | 303 kts | 79° |
| 2026-04-23 09:07 | 11.92349 | 109.01761 | 10515 ft | 301 kts | 79° |
| 2026-04-23 09:07 | 11.92712 | 109.03869 | 10204 ft | 300 kts | 79° |
| 2026-04-23 09:07 | 11.93072 | 109.05960 | 9888 ft | 298 kts | 79° |
| 2026-04-23 09:07 | 11.93431 | 109.08047 | 9563 ft | 298 kts | 79° |
| 2026-04-23 09:08 | 11.93783 | 109.10093 | 9315 ft | 294 kts | 80° |
| 2026-04-23 09:08 | 11.94137 | 109.12153 | 9144 ft | 295 kts | 80° |
| 2026-04-23 09:08 | 11.94493 | 109.14226 | 8743 ft | 297 kts | 80° |
| 2026-04-23 09:08 | 11.94852 | 109.16315 | 8112 ft | 300 kts | 80° |
| 2026-04-23 09:09 | 11.95214 | 109.18431 | 7525 ft | 302 kts | 79° |
| 2026-04-23 09:09 | 11.95523 | 109.20505 | 7133 ft | 292 kts | 86° |
| 2026-04-23 09:09 | 11.95367 | 109.22544 | 6673 ft | 286 kts | 103° |
| 2026-04-23 09:09 | 11.94738 | 109.24435 | 6472 ft | 282 kts | 110° |
| 2026-04-23 09:10 | 11.94048 | 109.26331 | 6340 ft | 284 kts | 109° |
| 2026-04-23 09:10 | 11.92681 | 109.30108 | 5562 ft | 284 kts | 117° |
| 2026-04-23 09:10 | 11.91457 | 109.31636 | 5184 ft | 275 kts | 145° |
| 2026-04-23 09:11 | 11.89689 | 109.32398 | 5039 ft | 280 kts | 172° |
| 2026-04-23 09:11 | 11.87778 | 109.32264 | 4937 ft | 275 kts | 198° |
| 2026-04-23 09:11 | 11.85990 | 109.31619 | 4924 ft | 277 kts | 201° |
| 2026-04-23 09:11 | 11.84188 | 109.30932 | 4923 ft | 276 kts | 201° |
| 2026-04-23 09:12 | 11.82419 | 109.30260 | 4920 ft | 262 kts | 201° |
| 2026-04-23 09:12 | 11.80879 | 109.29455 | 4868 ft | 239 kts | 221° |
| 2026-04-23 09:12 | 11.79929 | 109.28170 | 4725 ft | 220 kts | 249° |
| 2026-04-23 09:12 | 11.79675 | 109.26707 | 4575 ft | 204 kts | 275° |
| 2026-04-23 09:13 | 11.80043 | 109.25338 | 4278 ft | 199 kts | 296° |
| 2026-04-23 09:13 | 11.80678 | 109.24065 | 3976 ft | 204 kts | 294° |
| 2026-04-23 09:13 | 11.81311 | 109.22771 | 3669 ft | 202 kts | 292° |
| 2026-04-23 09:13 | 11.81931 | 109.21475 | 3373 ft | 204 kts | 292° |
| 2026-04-23 09:14 | 11.82553 | 109.20168 | 3065 ft | 205 kts | 291° |
| 2026-04-23 09:14 | 11.83182 | 109.18846 | 2760 ft | 208 kts | 292° |
| 2026-04-23 09:14 | 11.84104 | 109.17728 | 2580 ft | 209 kts | 328° |
| 2026-04-23 09:14 | 11.85465 | 109.17337 | 2518 ft | 203 kts | 358° |
| 2026-04-23 09:15 | 11.86833 | 109.17497 | 2380 ft | 194 kts | 14° |
| 2026-04-23 09:15 | 11.88080 | 109.17861 | 2248 ft | 183 kts | 20° |
| 2026-04-23 09:15 | 11.89259 | 109.18268 | 2106 ft | 175 kts | 21° |
| 2026-04-23 09:15 | 11.90405 | 109.18664 | 1903 ft | 174 kts | 20° |
| 2026-04-23 09:16 | 11.91553 | 109.19064 | 1663 ft | 175 kts | 20° |
| 2026-04-23 09:16 | 11.92704 | 109.19463 | 1387 ft | 172 kts | 21° |
| 2026-04-23 09:16 | 11.93811 | 109.19846 | 1155 ft | 163 kts | 19° |
| 2026-04-23 09:16 | 11.94853 | 109.20208 | 910 ft | 151 kts | 21° |
| 2026-04-23 09:17 | 11.95795 | 109.20533 | 691 ft | 135 kts | 23° |
| 2026-04-23 09:17 | 11.96717 | 109.20858 | 505 ft | 146 kts | 23° |
| 2026-04-23 09:17 | 11.97693 | 109.21194 | 264 ft | 149 kts | 21° |
| 2026-04-23 09:17 | 11.98671 | 109.21535 | 47 ft | 148 kts | 22° |
| 2026-04-23 09:18 | 11.99454 | 109.21815 | 36 ft | 81 kts | 17° |
| 2026-04-23 09:18 | 11.99702 | 109.21889 | 40 ft | 0 kts | 17° |
| 2026-04-23 09:18 | 11.99707 | 109.21890 | 40 ft | 2 kts | 17° |
| 2026-04-23 09:18 | 11.99733 | 109.21899 | 41 ft | 6 kts | 17° |
| 2026-04-23 09:19 | 11.99780 | 109.21915 | 42 ft | 8 kts | 20° |
| 2026-04-23 09:19 | 11.99843 | 109.21938 | 43 ft | 11 kts | 17° |
| 2026-04-23 09:19 | 11.99926 | 109.21961 | 44 ft | 14 kts | 20° |
| 2026-04-23 09:19 | 12.00011 | 109.21953 | 45 ft | 14 kts | 291° |
| 2026-04-23 09:20 | 12.00045 | 109.21849 | 45 ft | 17 kts | 288° |
| 2026-04-23 09:20 | 12.00080 | 109.21742 | 42 ft | 6 kts | 288° |
| 2026-04-23 09:20 | 12.00100 | 109.21688 | 42 ft | 10 kts | 291° |
| 2026-04-23 09:20 | 12.00153 | 109.21634 | 44 ft | 13 kts | 5° |
| 2026-04-23 09:21 | 12.00244 | 109.21667 | 45 ft | 15 kts | 19° |
| 2026-04-23 09:21 | 12.00354 | 109.21706 | 46 ft | 18 kts | 21° |
| 2026-04-23 09:21 | 12.00402 | 109.21724 | 47 ft | 2 kts | 21° |
| 2026-04-23 09:21 | 12.00425 | 109.21733 | 47 ft | 5 kts | 18° |
| 2026-04-23 09:22 | 12.00438 | 109.21737 | 47 ft | 6 kts | 17° |
| 2026-04-23 09:22 | 12.00475 | 109.21749 | 47 ft | 9 kts | 17° |
| 2026-04-23 09:22 | 12.00537 | 109.21770 | 48 ft | 7 kts | 19° |
| 2026-04-23 09:23 | 12.00594 | 109.21791 | 49 ft | 10 kts | 18° |
| 2026-04-23 09:23 | 12.00644 | 109.21751 | 46 ft | 11 kts | 289° |
| 2026-04-23 09:23 | 12.00664 | 109.21692 | 48 ft | 9 kts | 289° |
| 2026-04-23 09:23 | 12.00671 | 109.21670 | 47 ft | 0 kts | 289° |
| 2026-04-23 09:24 | 12.00676 | 109.21656 | 47 ft | 4 kts | 289° |
| 2026-04-23 09:24 | 12.00677 | 109.21652 | 48 ft | 0 kts | 289° |
| 2026-04-23 09:27 | 12.00679 | 109.21648 | 49 ft | 0 kts | 289° |
| 2026-04-23 09:28 | 12.00679 | 109.21647 | 49 ft | 1 kts | 289° |
| 2026-04-23 09:28 | 12.00681 | 109.21640 | 49 ft | 1 kts | 289° |
| 2026-04-23 09:29 | 12.00682 | 109.21639 | 49 ft | 0 kts | 289° |